sensor_id;sensor_type;location;lat;lon;timestamp;P1;durP1;ratioP1;P2;durP2;ratioP2
18738;SDS011;9498;51.862;19.460;2022-09-23T00:00:57;14.50;;;7.70;;
18738;SDS011;9498;51.862;19.460;2022-09-23T00:03:24;19.47;;;7.93;;
18738;SDS011;9498;51.862;19.460;2022-09-23T00:05:56;17.77;;;8.23;;
18738;SDS011;9498;51.862;19.460;2022-09-23T00:08:23;15.17;;;7.73;;
18738;SDS011;9498;51.862;19.460;2022-09-23T00:10:52;13.93;;;7.30;;
18738;SDS011;9498;51.862;19.460;2022-09-23T00:13:19;15.20;;;7.43;;
18738;SDS011;9498;51.862;19.460;2022-09-23T00:15:47;17.17;;;6.57;;
18738;SDS011;9498;51.862;19.460;2022-09-23T00:18:14;18.75;;;7.50;;
18738;SDS011;9498;51.862;19.460;2022-09-23T00:20:42;14.23;;;6.93;;
18738;SDS011;9498;51.862;19.460;2022-09-23T00:23:09;13.17;;;6.83;;
18738;SDS011;9498;51.862;19.460;2022-09-23T00:25:37;12.83;;;7.20;;
18738;SDS011;9498;51.862;19.460;2022-09-23T00:28:05;19.80;;;7.80;;
18738;SDS011;9498;51.862;19.460;2022-09-23T00:30:32;19.70;;;7.70;;
18738;SDS011;9498;51.862;19.460;2022-09-23T00:33:00;14.97;;;7.73;;
18738;SDS011;9498;51.862;19.460;2022-09-23T00:35:27;19.27;;;7.50;;
18738;SDS011;9498;51.862;19.460;2022-09-23T00:37:54;15.40;;;7.47;;
18738;SDS011;9498;51.862;19.460;2022-09-23T00:40:21;19.07;;;6.63;;
18738;SDS011;9498;51.862;19.460;2022-09-23T00:42:49;15.33;;;6.93;;
18738;SDS011;9498;51.862;19.460;2022-09-23T00:45:18;18.83;;;7.13;;
18738;SDS011;9498;51.862;19.460;2022-09-23T00:47:46;14.10;;;6.53;;
18738;SDS011;9498;51.862;19.460;2022-09-23T00:50:17;13.00;;;6.27;;
18738;SDS011;9498;51.862;19.460;2022-09-23T00:52:46;12.50;;;5.80;;
18738;SDS011;9498;51.862;19.460;2022-09-23T00:55:15;14.50;;;6.73;;
18738;SDS011;9498;51.862;19.460;2022-09-23T00:57:43;13.03;;;7.20;;
18738;SDS011;9498;51.862;19.460;2022-09-23T01:00:12;12.27;;;7.37;;
18738;SDS011;9498;51.862;19.460;2022-09-23T01:02:41;15.47;;;7.70;;
18738;SDS011;9498;51.862;19.460;2022-09-23T01:05:08;15.15;;;7.63;;
18738;SDS011;9498;51.862;19.460;2022-09-23T01:07:35;15.07;;;7.20;;
18738;SDS011;9498;51.862;19.460;2022-09-23T01:10:03;12.90;;;7.07;;
18738;SDS011;9498;51.862;19.460;2022-09-23T01:12:38;15.77;;;7.53;;
18738;SDS011;9498;51.862;19.460;2022-09-23T01:15:10;19.37;;;8.17;;
18738;SDS011;9498;51.862;19.460;2022-09-23T01:17:42;14.83;;;7.03;;
18738;SDS011;9498;51.862;19.460;2022-09-23T01:23:00;15.93;;;7.00;;
18738;SDS011;9498;51.862;19.460;2022-09-23T01:25:45;16.57;;;7.00;;
18738;SDS011;9498;51.862;19.460;2022-09-23T01:28:20;11.67;;;6.63;;
18738;SDS011;9498;51.862;19.460;2022-09-23T01:30:56;14.10;;;6.80;;
18738;SDS011;9498;51.862;19.460;2022-09-23T01:33:28;13.00;;;6.90;;
18738;SDS011;9498;51.862;19.460;2022-09-23T01:36:02;13.23;;;7.18;;
18738;SDS011;9498;51.862;19.460;2022-09-23T01:38:36;15.10;;;6.50;;
18738;SDS011;9498;51.862;19.460;2022-09-23T01:41:08;14.77;;;7.40;;
18738;SDS011;9498;51.862;19.460;2022-09-23T01:43:39;19.73;;;6.87;;
18738;SDS011;9498;51.862;19.460;2022-09-23T01:46:12;12.77;;;6.83;;
18738;SDS011;9498;51.862;19.460;2022-09-23T01:48:41;18.30;;;7.27;;
18738;SDS011;9498;51.862;19.460;2022-09-23T01:51:12;16.70;;;7.67;;
18738;SDS011;9498;51.862;19.460;2022-09-23T01:53:42;15.57;;;7.20;;
18738;SDS011;9498;51.862;19.460;2022-09-23T01:56:12;15.57;;;7.40;;
18738;SDS011;9498;51.862;19.460;2022-09-23T01:58:41;12.87;;;6.57;;
18738;SDS011;9498;51.862;19.460;2022-09-23T02:01:13;14.63;;;6.70;;
18738;SDS011;9498;51.862;19.460;2022-09-23T02:03:42;17.30;;;7.63;;
18738;SDS011;9498;51.862;19.460;2022-09-23T02:06:12;25.27;;;7.80;;
18738;SDS011;9498;51.862;19.460;2022-09-23T02:08:42;16.10;;;7.78;;
18738;SDS011;9498;51.862;19.460;2022-09-23T02:11:10;15.30;;;7.40;;
18738;SDS011;9498;51.862;19.460;2022-09-23T02:13:40;15.07;;;6.97;;
18738;SDS011;9498;51.862;19.460;2022-09-23T02:16:12;15.83;;;7.27;;
18738;SDS011;9498;51.862;19.460;2022-09-23T02:18:42;15.23;;;7.17;;
18738;SDS011;9498;51.862;19.460;2022-09-23T02:21:10;20.53;;;8.67;;
18738;SDS011;9498;51.862;19.460;2022-09-23T02:23:40;17.10;;;7.47;;
18738;SDS011;9498;51.862;19.460;2022-09-23T02:26:11;16.03;;;6.93;;
18738;SDS011;9498;51.862;19.460;2022-09-23T02:28:41;15.30;;;7.10;;
18738;SDS011;9498;51.862;19.460;2022-09-23T02:31:13;17.43;;;7.80;;
18738;SDS011;9498;51.862;19.460;2022-09-23T02:33:45;20.00;;;7.57;;
18738;SDS011;9498;51.862;19.460;2022-09-23T02:36:17;16.17;;;7.80;;
18738;SDS011;9498;51.862;19.460;2022-09-23T02:38:51;17.53;;;7.17;;
18738;SDS011;9498;51.862;19.460;2022-09-23T02:41:22;18.07;;;8.60;;
18738;SDS011;9498;51.862;19.460;2022-09-23T02:43:52;16.53;;;7.37;;
18738;SDS011;9498;51.862;19.460;2022-09-23T02:46:21;21.37;;;8.80;;
18738;SDS011;9498;51.862;19.460;2022-09-23T02:48:49;19.87;;;8.03;;
18738;SDS011;9498;51.862;19.460;2022-09-23T02:51:17;19.13;;;8.27;;
18738;SDS011;9498;51.862;19.460;2022-09-23T02:53:45;19.27;;;8.17;;
18738;SDS011;9498;51.862;19.460;2022-09-23T02:56:13;16.37;;;7.77;;
18738;SDS011;9498;51.862;19.460;2022-09-23T02:58:40;18.83;;;7.83;;
18738;SDS011;9498;51.862;19.460;2022-09-23T03:01:10;25.27;;;9.60;;
18738;SDS011;9498;51.862;19.460;2022-09-23T03:03:42;23.27;;;9.57;;
18738;SDS011;9498;51.862;19.460;2022-09-23T03:06:14;19.70;;;9.27;;
18738;SDS011;9498;51.862;19.460;2022-09-23T03:08:45;18.17;;;9.53;;
18738;SDS011;9498;51.862;19.460;2022-09-23T03:11:14;29.40;;;10.83;;
18738;SDS011;9498;51.862;19.460;2022-09-23T03:16:27;24.10;;;9.37;;
18738;SDS011;9498;51.862;19.460;2022-09-23T03:18:58;26.35;;;10.75;;
18738;SDS011;9498;51.862;19.460;2022-09-23T03:21:30;23.00;;;9.40;;
18738;SDS011;9498;51.862;19.460;2022-09-23T03:24:00;27.17;;;11.10;;
18738;SDS011;9498;51.862;19.460;2022-09-23T03:26:29;25.77;;;9.27;;
18738;SDS011;9498;51.862;19.460;2022-09-23T03:28:57;26.10;;;10.33;;
18738;SDS011;9498;51.862;19.460;2022-09-23T03:31:25;29.70;;;10.53;;
18738;SDS011;9498;51.862;19.460;2022-09-23T03:33:53;26.20;;;10.17;;
18738;SDS011;9498;51.862;19.460;2022-09-23T03:36:23;27.77;;;10.20;;
18738;SDS011;9498;51.862;19.460;2022-09-23T03:39:22;25.47;;;10.13;;
18738;SDS011;9498;51.862;19.460;2022-09-23T03:41:51;30.30;;;11.95;;
18738;SDS011;9498;51.862;19.460;2022-09-23T03:44:19;39.97;;;13.20;;
18738;SDS011;9498;51.862;19.460;2022-09-23T03:46:47;39.50;;;13.33;;
18738;SDS011;9498;51.862;19.460;2022-09-23T03:49:15;32.93;;;12.77;;
18738;SDS011;9498;51.862;19.460;2022-09-23T03:51:45;43.57;;;14.60;;
18738;SDS011;9498;51.862;19.460;2022-09-23T03:54:12;49.30;;;13.67;;
18738;SDS011;9498;51.862;19.460;2022-09-23T03:56:39;44.23;;;14.87;;
18738;SDS011;9498;51.862;19.460;2022-09-23T03:59:08;51.53;;;14.83;;
18738;SDS011;9498;51.862;19.460;2022-09-23T04:01:35;43.37;;;14.80;;
18738;SDS011;9498;51.862;19.460;2022-09-23T04:04:03;36.67;;;14.03;;
18738;SDS011;9498;51.862;19.460;2022-09-23T04:06:30;37.37;;;13.27;;
18738;SDS011;9498;51.862;19.460;2022-09-23T04:08:58;37.63;;;12.73;;
18738;SDS011;9498;51.862;19.460;2022-09-23T04:11:26;35.80;;;13.07;;
18738;SDS011;9498;51.862;19.460;2022-09-23T04:13:54;33.53;;;12.90;;
18738;SDS011;9498;51.862;19.460;2022-09-23T04:16:21;37.13;;;12.90;;
18738;SDS011;9498;51.862;19.460;2022-09-23T04:18:48;36.67;;;12.90;;
18738;SDS011;9498;51.862;19.460;2022-09-23T04:21:16;35.73;;;12.17;;
18738;SDS011;9498;51.862;19.460;2022-09-23T04:23:43;37.20;;;14.93;;
18738;SDS011;9498;51.862;19.460;2022-09-23T04:26:12;39.80;;;15.03;;
18738;SDS011;9498;51.862;19.460;2022-09-23T04:28:40;29.27;;;13.33;;
18738;SDS011;9498;51.862;19.460;2022-09-23T04:31:07;38.40;;;14.67;;
18738;SDS011;9498;51.862;19.460;2022-09-23T04:33:34;36.23;;;14.17;;
18738;SDS011;9498;51.862;19.460;2022-09-23T04:36:02;34.47;;;14.93;;
18738;SDS011;9498;51.862;19.460;2022-09-23T04:38:30;33.93;;;13.57;;
18738;SDS011;9498;51.862;19.460;2022-09-23T04:40:57;31.03;;;13.40;;
18738;SDS011;9498;51.862;19.460;2022-09-23T04:43:26;33.20;;;14.43;;
18738;SDS011;9498;51.862;19.460;2022-09-23T04:45:56;34.33;;;13.83;;
18738;SDS011;9498;51.862;19.460;2022-09-23T04:48:24;34.63;;;15.17;;
18738;SDS011;9498;51.862;19.460;2022-09-23T04:50:52;37.20;;;14.47;;
18738;SDS011;9498;51.862;19.460;2022-09-23T04:53:19;38.07;;;14.87;;
18738;SDS011;9498;51.862;19.460;2022-09-23T04:55:46;35.63;;;15.37;;
18738;SDS011;9498;51.862;19.460;2022-09-23T04:58:16;40.60;;;16.20;;
18738;SDS011;9498;51.862;19.460;2022-09-23T05:00:46;36.33;;;15.27;;
18738;SDS011;9498;51.862;19.460;2022-09-23T05:03:13;33.93;;;15.43;;
18738;SDS011;9498;51.862;19.460;2022-09-23T05:05:41;38.30;;;15.90;;
18738;SDS011;9498;51.862;19.460;2022-09-23T05:08:08;37.37;;;16.43;;
18738;SDS011;9498;51.862;19.460;2022-09-23T05:10:36;42.30;;;16.13;;
18738;SDS011;9498;51.862;19.460;2022-09-23T05:13:03;37.20;;;14.67;;
18738;SDS011;9498;51.862;19.460;2022-09-23T05:15:30;41.17;;;16.27;;
18738;SDS011;9498;51.862;19.460;2022-09-23T05:17:59;38.70;;;15.70;;
18738;SDS011;9498;51.862;19.460;2022-09-23T05:20:27;39.60;;;16.10;;
18738;SDS011;9498;51.862;19.460;2022-09-23T05:22:54;36.27;;;15.77;;
18738;SDS011;9498;51.862;19.460;2022-09-23T05:25:21;31.50;;;15.10;;
18738;SDS011;9498;51.862;19.460;2022-09-23T05:27:49;39.37;;;15.47;;
18738;SDS011;9498;51.862;19.460;2022-09-23T05:30:16;40.93;;;15.90;;
18738;SDS011;9498;51.862;19.460;2022-09-23T05:32:43;40.67;;;16.97;;
18738;SDS011;9498;51.862;19.460;2022-09-23T05:35:12;44.43;;;16.70;;
18738;SDS011;9498;51.862;19.460;2022-09-23T05:37:39;41.30;;;16.70;;
18738;SDS011;9498;51.862;19.460;2022-09-23T05:40:07;43.10;;;16.63;;
18738;SDS011;9498;51.862;19.460;2022-09-23T05:42:34;45.70;;;17.83;;
18738;SDS011;9498;51.862;19.460;2022-09-23T05:45:02;50.17;;;18.87;;
18738;SDS011;9498;51.862;19.460;2022-09-23T05:47:30;42.50;;;17.73;;
18738;SDS011;9498;51.862;19.460;2022-09-23T05:49:57;47.70;;;18.17;;
18738;SDS011;9498;51.862;19.460;2022-09-23T05:52:26;49.67;;;18.07;;
18738;SDS011;9498;51.862;19.460;2022-09-23T05:54:53;48.60;;;19.30;;
18738;SDS011;9498;51.862;19.460;2022-09-23T05:57:20;59.97;;;21.23;;
18738;SDS011;9498;51.862;19.460;2022-09-23T05:59:48;50.97;;;20.77;;
18738;SDS011;9498;51.862;19.460;2022-09-23T06:02:15;55.77;;;21.83;;
18738;SDS011;9498;51.862;19.460;2022-09-23T06:04:42;51.50;;;20.33;;
18738;SDS011;9498;51.862;19.460;2022-09-23T06:07:10;46.90;;;19.93;;
18738;SDS011;9498;51.862;19.460;2022-09-23T06:09:38;58.33;;;21.37;;
18738;SDS011;9498;51.862;19.460;2022-09-23T06:12:06;57.87;;;21.27;;
18738;SDS011;9498;51.862;19.460;2022-09-23T06:14:33;55.87;;;20.33;;
18738;SDS011;9498;51.862;19.460;2022-09-23T06:17:01;59.00;;;22.33;;
18738;SDS011;9498;51.862;19.460;2022-09-23T06:19:29;55.90;;;21.17;;
18738;SDS011;9498;51.862;19.460;2022-09-23T06:21:57;62.30;;;22.53;;
18738;SDS011;9498;51.862;19.460;2022-09-23T06:24:24;57.83;;;21.50;;
18738;SDS011;9498;51.862;19.460;2022-09-23T06:26:53;51.20;;;21.97;;
18738;SDS011;9498;51.862;19.460;2022-09-23T06:29:20;52.40;;;20.67;;
18738;SDS011;9498;51.862;19.460;2022-09-23T06:31:47;52.30;;;20.33;;
18738;SDS011;9498;51.862;19.460;2022-09-23T06:34:15;49.57;;;19.00;;
18738;SDS011;9498;51.862;19.460;2022-09-23T06:36:43;51.27;;;20.33;;
18738;SDS011;9498;51.862;19.460;2022-09-23T06:39:10;52.17;;;19.67;;
18738;SDS011;9498;51.862;19.460;2022-09-23T06:41:38;48.27;;;19.73;;
18738;SDS011;9498;51.862;19.460;2022-09-23T06:44:06;54.40;;;19.87;;
18738;SDS011;9498;51.862;19.460;2022-09-23T06:46:34;47.93;;;19.60;;
18738;SDS011;9498;51.862;19.460;2022-09-23T06:49:01;60.40;;;24.87;;
18738;SDS011;9498;51.862;19.460;2022-09-23T06:51:29;52.47;;;21.40;;
18738;SDS011;9498;51.862;19.460;2022-09-23T06:53:56;59.13;;;23.37;;
18738;SDS011;9498;51.862;19.460;2022-09-23T06:56:23;51.00;;;20.30;;
18738;SDS011;9498;51.862;19.460;2022-09-23T06:58:51;50.90;;;20.10;;
18738;SDS011;9498;51.862;19.460;2022-09-23T07:01:20;48.60;;;18.87;;
18738;SDS011;9498;51.862;19.460;2022-09-23T07:03:48;49.47;;;19.73;;
18738;SDS011;9498;51.862;19.460;2022-09-23T07:06:16;49.43;;;19.63;;
18738;SDS011;9498;51.862;19.460;2022-09-23T07:08:44;46.50;;;19.30;;
18738;SDS011;9498;51.862;19.460;2022-09-23T07:11:12;48.93;;;19.93;;
18738;SDS011;9498;51.862;19.460;2022-09-23T07:13:40;45.93;;;18.53;;
18738;SDS011;9498;51.862;19.460;2022-09-23T07:16:08;44.17;;;19.57;;
18738;SDS011;9498;51.862;19.460;2022-09-23T07:18:37;44.70;;;18.17;;
18738;SDS011;9498;51.862;19.460;2022-09-23T07:21:06;42.87;;;18.20;;
18738;SDS011;9498;51.862;19.460;2022-09-23T07:23:33;42.07;;;17.67;;
18738;SDS011;9498;51.862;19.460;2022-09-23T07:26:02;46.53;;;18.03;;
18738;SDS011;9498;51.862;19.460;2022-09-23T07:28:29;43.53;;;18.17;;
18738;SDS011;9498;51.862;19.460;2022-09-23T07:31:00;39.40;;;17.10;;
18738;SDS011;9498;51.862;19.460;2022-09-23T07:33:28;41.47;;;17.27;;
18738;SDS011;9498;51.862;19.460;2022-09-23T07:35:57;47.70;;;18.50;;
18738;SDS011;9498;51.862;19.460;2022-09-23T07:38:24;40.07;;;17.00;;
18738;SDS011;9498;51.862;19.460;2022-09-23T07:40:58;41.30;;;17.53;;
18738;SDS011;9498;51.862;19.460;2022-09-23T07:43:26;35.50;;;15.87;;
18738;SDS011;9498;51.862;19.460;2022-09-23T07:45:56;31.43;;;14.60;;
18738;SDS011;9498;51.862;19.460;2022-09-23T07:48:23;32.90;;;13.90;;
18738;SDS011;9498;51.862;19.460;2022-09-23T07:50:51;31.27;;;13.97;;
18738;SDS011;9498;51.862;19.460;2022-09-23T07:53:19;24.20;;;10.50;;
18738;SDS011;9498;51.862;19.460;2022-09-23T07:55:50;17.03;;;8.53;;
18738;SDS011;9498;51.862;19.460;2022-09-23T07:58:18;11.50;;;6.37;;
18738;SDS011;9498;51.862;19.460;2022-09-23T08:00:45;14.80;;;6.50;;
18738;SDS011;9498;51.862;19.460;2022-09-23T08:03:13;10.73;;;5.73;;
18738;SDS011;9498;51.862;19.460;2022-09-23T08:05:40;13.80;;;7.20;;
18738;SDS011;9498;51.862;19.460;2022-09-23T08:08:08;16.33;;;6.93;;
18738;SDS011;9498;51.862;19.460;2022-09-23T08:10:36;12.07;;;6.60;;
18738;SDS011;9498;51.862;19.460;2022-09-23T08:13:04;15.07;;;7.37;;
18738;SDS011;9498;51.862;19.460;2022-09-23T08:15:31;8.47;;;4.60;;
18738;SDS011;9498;51.862;19.460;2022-09-23T08:17:58;12.03;;;4.90;;
18738;SDS011;9498;51.862;19.460;2022-09-23T08:20:26;10.50;;;4.70;;
18738;SDS011;9498;51.862;19.460;2022-09-23T08:23:12;8.50;;;4.80;;
18738;SDS011;9498;51.862;19.460;2022-09-23T08:25:41;8.30;;;4.07;;
18738;SDS011;9498;51.862;19.460;2022-09-23T08:28:10;7.87;;;3.77;;
18738;SDS011;9498;51.862;19.460;2022-09-23T08:30:40;5.70;;;3.27;;
18738;SDS011;9498;51.862;19.460;2022-09-23T08:33:08;5.93;;;3.57;;
18738;SDS011;9498;51.862;19.460;2022-09-23T08:35:35;4.50;;;3.23;;
18738;SDS011;9498;51.862;19.460;2022-09-23T08:38:02;4.93;;;3.30;;
18738;SDS011;9498;51.862;19.460;2022-09-23T08:40:31;3.20;;;2.80;;
18738;SDS011;9498;51.862;19.460;2022-09-23T08:43:00;5.40;;;2.60;;
18738;SDS011;9498;51.862;19.460;2022-09-23T08:45:31;3.97;;;2.67;;
18738;SDS011;9498;51.862;19.460;2022-09-23T08:48:00;5.43;;;3.00;;
18738;SDS011;9498;51.862;19.460;2022-09-23T08:50:32;6.80;;;3.40;;
18738;SDS011;9498;51.862;19.460;2022-09-23T08:53:02;6.23;;;3.90;;
18738;SDS011;9498;51.862;19.460;2022-09-23T08:55:32;7.30;;;3.27;;
18738;SDS011;9498;51.862;19.460;2022-09-23T08:58:07;7.90;;;3.80;;
18738;SDS011;9498;51.862;19.460;2022-09-23T09:00:46;8.17;;;3.40;;
18738;SDS011;9498;51.862;19.460;2022-09-23T09:03:18;8.60;;;3.10;;
18738;SDS011;9498;51.862;19.460;2022-09-23T09:05:47;5.20;;;2.77;;
18738;SDS011;9498;51.862;19.460;2022-09-23T09:08:15;3.53;;;2.20;;
18738;SDS011;9498;51.862;19.460;2022-09-23T09:10:48;2.20;;;1.70;;
18738;SDS011;9498;51.862;19.460;2022-09-23T09:13:21;2.40;;;1.80;;
18738;SDS011;9498;51.862;19.460;2022-09-23T09:15:52;3.07;;;1.97;;
18738;SDS011;9498;51.862;19.460;2022-09-23T09:18:24;2.20;;;1.80;;
18738;SDS011;9498;51.862;19.460;2022-09-23T09:20:54;3.07;;;1.97;;
18738;SDS011;9498;51.862;19.460;2022-09-23T09:23:24;4.13;;;2.40;;
18738;SDS011;9498;51.862;19.460;2022-09-23T09:25:53;2.73;;;2.00;;
18738;SDS011;9498;51.862;19.460;2022-09-23T09:28:22;5.30;;;2.50;;
18738;SDS011;9498;51.862;19.460;2022-09-23T09:30:52;4.77;;;1.93;;
18738;SDS011;9498;51.862;19.460;2022-09-23T09:33:23;2.50;;;1.87;;
18738;SDS011;9498;51.862;19.460;2022-09-23T09:36:02;2.80;;;1.83;;
18738;SDS011;9498;51.862;19.460;2022-09-23T09:38:33;3.47;;;1.77;;
18738;SDS011;9498;51.862;19.460;2022-09-23T09:41:01;1.90;;;1.60;;
18738;SDS011;9498;51.862;19.460;2022-09-23T09:43:36;2.63;;;1.77;;
18738;SDS011;9498;51.862;19.460;2022-09-23T09:46:05;2.50;;;1.80;;
18738;SDS011;9498;51.862;19.460;2022-09-23T09:48:38;3.57;;;2.17;;
18738;SDS011;9498;51.862;19.460;2022-09-23T09:51:16;3.50;;;1.90;;
18738;SDS011;9498;51.862;19.460;2022-09-23T09:53:45;2.23;;;1.50;;
18738;SDS011;9498;51.862;19.460;2022-09-23T09:56:12;2.80;;;1.60;;
18738;SDS011;9498;51.862;19.460;2022-09-23T09:58:43;3.83;;;1.60;;
18738;SDS011;9498;51.862;19.460;2022-09-23T10:01:21;1.67;;;1.30;;
18738;SDS011;9498;51.862;19.460;2022-09-23T10:03:49;1.77;;;1.10;;
18738;SDS011;9498;51.862;19.460;2022-09-23T10:06:19;2.00;;;1.40;;
18738;SDS011;9498;51.862;19.460;2022-09-23T10:11:38;3.17;;;1.87;;
18738;SDS011;9498;51.862;19.460;2022-09-23T10:14:10;2.17;;;1.70;;
18738;SDS011;9498;51.862;19.460;2022-09-23T10:16:40;7.43;;;2.00;;
18738;SDS011;9498;51.862;19.460;2022-09-23T10:19:12;4.33;;;2.00;;
18738;SDS011;9498;51.862;19.460;2022-09-23T10:21:40;2.08;;;1.65;;
18738;SDS011;9498;51.862;19.460;2022-09-23T10:24:07;2.43;;;1.80;;
18738;SDS011;9498;51.862;19.460;2022-09-23T10:26:49;1.53;;;1.23;;
18738;SDS011;9498;51.862;19.460;2022-09-23T10:29:21;2.20;;;1.43;;
18738;SDS011;9498;51.862;19.460;2022-09-23T10:32:12;2.20;;;1.53;;
18738;SDS011;9498;51.862;19.460;2022-09-23T10:34:40;2.13;;;1.50;;
18738;SDS011;9498;51.862;19.460;2022-09-23T10:37:12;4.13;;;1.50;;
18738;SDS011;9498;51.862;19.460;2022-09-23T10:39:41;3.67;;;1.40;;
18738;SDS011;9498;51.862;19.460;2022-09-23T10:42:27;2.80;;;1.50;;
18738;SDS011;9498;51.862;19.460;2022-09-23T10:45:17;1.90;;;1.13;;
18738;SDS011;9498;51.862;19.460;2022-09-23T10:48:05;3.43;;;1.50;;
18738;SDS011;9498;51.862;19.460;2022-09-23T10:50:37;2.10;;;1.20;;
18738;SDS011;9498;51.862;19.460;2022-09-23T10:53:11;1.87;;;0.90;;
18738;SDS011;9498;51.862;19.460;2022-09-23T10:55:50;2.70;;;1.43;;
18738;SDS011;9498;51.862;19.460;2022-09-23T10:58:28;4.13;;;1.97;;
18738;SDS011;9498;51.862;19.460;2022-09-23T11:01:03;3.13;;;1.53;;
18738;SDS011;9498;51.862;19.460;2022-09-23T11:03:37;1.60;;;1.20;;
18738;SDS011;9498;51.862;19.460;2022-09-23T11:06:10;3.13;;;1.20;;
18738;SDS011;9498;51.862;19.460;2022-09-23T11:08:45;1.40;;;1.30;;
18738;SDS011;9498;51.862;19.460;2022-09-23T11:11:20;2.37;;;1.60;;
18738;SDS011;9498;51.862;19.460;2022-09-23T11:13:56;2.93;;;1.50;;
18738;SDS011;9498;51.862;19.460;2022-09-23T11:16:33;4.00;;;1.50;;
18738;SDS011;9498;51.862;19.460;2022-09-23T11:19:18;1.73;;;1.20;;
18738;SDS011;9498;51.862;19.460;2022-09-23T11:21:55;2.23;;;1.40;;
18738;SDS011;9498;51.862;19.460;2022-09-23T11:27:29;3.27;;;1.50;;
18738;SDS011;9498;51.862;19.460;2022-09-23T11:30:04;1.20;;;1.10;;
18738;SDS011;9498;51.862;19.460;2022-09-23T11:32:46;1.70;;;1.30;;
18738;SDS011;9498;51.862;19.460;2022-09-23T11:35:16;2.17;;;1.50;;
18738;SDS011;9498;51.862;19.460;2022-09-23T11:37:45;3.40;;;1.50;;
18738;SDS011;9498;51.862;19.460;2022-09-23T11:40:16;1.63;;;1.37;;
18738;SDS011;9498;51.862;19.460;2022-09-23T11:42:46;3.25;;;1.60;;
18738;SDS011;9498;51.862;19.460;2022-09-23T11:45:17;3.53;;;1.90;;
18738;SDS011;9498;51.862;19.460;2022-09-23T11:47:49;2.77;;;1.73;;
18738;SDS011;9498;51.862;19.460;2022-09-23T11:50:18;4.03;;;1.70;;
18738;SDS011;9498;51.862;19.460;2022-09-23T11:52:50;2.90;;;1.60;;
18738;SDS011;9498;51.862;19.460;2022-09-23T11:55:23;5.70;;;1.60;;
18738;SDS011;9498;51.862;19.460;2022-09-23T11:57:52;2.60;;;1.67;;
18738;SDS011;9498;51.862;19.460;2022-09-23T12:00:20;3.67;;;1.73;;
18738;SDS011;9498;51.862;19.460;2022-09-23T12:02:58;4.33;;;1.87;;
18738;SDS011;9498;51.862;19.460;2022-09-23T12:05:29;4.40;;;2.27;;
18738;SDS011;9498;51.862;19.460;2022-09-23T12:07:58;7.07;;;2.23;;
18738;SDS011;9498;51.862;19.460;2022-09-23T12:10:33;2.17;;;1.50;;
18738;SDS011;9498;51.862;19.460;2022-09-23T12:13:03;2.67;;;1.93;;
18738;SDS011;9498;51.862;19.460;2022-09-23T12:15:35;2.70;;;2.00;;
18738;SDS011;9498;51.862;19.460;2022-09-23T12:21:06;4.10;;;1.60;;
18738;SDS011;9498;51.862;19.460;2022-09-23T12:26:54;3.53;;;1.90;;
18738;SDS011;9498;51.862;19.460;2022-09-23T12:29:23;6.23;;;1.50;;
18738;SDS011;9498;51.862;19.460;2022-09-23T12:31:51;1.97;;;1.30;;
18738;SDS011;9498;51.862;19.460;2022-09-23T12:34:20;2.70;;;1.70;;
18738;SDS011;9498;51.862;19.460;2022-09-23T12:36:49;3.23;;;1.70;;
18738;SDS011;9498;51.862;19.460;2022-09-23T12:39:20;2.70;;;1.70;;
18738;SDS011;9498;51.862;19.460;2022-09-23T12:41:53;3.83;;;1.70;;
18738;SDS011;9498;51.862;19.460;2022-09-23T12:44:27;1.70;;;1.40;;
18738;SDS011;9498;51.862;19.460;2022-09-23T12:50:20;2.43;;;1.70;;
18738;SDS011;9498;51.862;19.460;2022-09-23T12:55:44;3.03;;;1.70;;
18738;SDS011;9498;51.862;19.460;2022-09-23T13:01:04;3.70;;;1.60;;
18738;SDS011;9498;51.862;19.460;2022-09-23T13:03:32;4.40;;;1.90;;
18738;SDS011;9498;51.862;19.460;2022-09-23T13:06:17;4.37;;;1.47;;
18738;SDS011;9498;51.862;19.460;2022-09-23T13:09:02;2.70;;;1.83;;
18738;SDS011;9498;51.862;19.460;2022-09-23T13:11:30;3.13;;;1.93;;
18738;SDS011;9498;51.862;19.460;2022-09-23T13:13:59;3.20;;;1.70;;
18738;SDS011;9498;51.862;19.460;2022-09-23T13:16:28;3.10;;;1.50;;
18738;SDS011;9498;51.862;19.460;2022-09-23T13:18:57;4.33;;;1.90;;
18738;SDS011;9498;51.862;19.460;2022-09-23T13:24:17;1.67;;;1.50;;
18738;SDS011;9498;51.862;19.460;2022-09-23T13:26:47;3.80;;;1.83;;
18738;SDS011;9498;51.862;19.460;2022-09-23T13:29:16;2.10;;;1.73;;
18738;SDS011;9498;51.862;19.460;2022-09-23T13:31:45;3.83;;;2.10;;
18738;SDS011;9498;51.862;19.460;2022-09-23T13:34:14;5.43;;;2.10;;
18738;SDS011;9498;51.862;19.460;2022-09-23T13:36:42;2.90;;;2.10;;
18738;SDS011;9498;51.862;19.460;2022-09-23T13:39:13;2.70;;;1.70;;
18738;SDS011;9498;51.862;19.460;2022-09-23T13:41:41;4.57;;;2.33;;
18738;SDS011;9498;51.862;19.460;2022-09-23T13:44:12;2.93;;;1.70;;
18738;SDS011;9498;51.862;19.460;2022-09-23T13:46:41;6.27;;;2.30;;
18738;SDS011;9498;51.862;19.460;2022-09-23T13:49:17;7.93;;;2.90;;
18738;SDS011;9498;51.862;19.460;2022-09-23T13:51:46;4.90;;;2.83;;
18738;SDS011;9498;51.862;19.460;2022-09-23T13:54:24;5.17;;;2.87;;
18738;SDS011;9498;51.862;19.460;2022-09-23T13:56:53;5.63;;;2.77;;
18738;SDS011;9498;51.862;19.460;2022-09-23T13:59:25;5.63;;;2.60;;
18738;SDS011;9498;51.862;19.460;2022-09-23T14:02:02;5.50;;;2.80;;
18738;SDS011;9498;51.862;19.460;2022-09-23T14:04:29;9.67;;;2.93;;
18738;SDS011;9498;51.862;19.460;2022-09-23T14:06:57;4.37;;;2.60;;
18738;SDS011;9498;51.862;19.460;2022-09-23T14:09:25;3.47;;;2.20;;
18738;SDS011;9498;51.862;19.460;2022-09-23T14:11:54;3.30;;;1.77;;
18738;SDS011;9498;51.862;19.460;2022-09-23T14:14:22;6.30;;;2.13;;
18738;SDS011;9498;51.862;19.460;2022-09-23T14:16:51;2.77;;;1.97;;
18738;SDS011;9498;51.862;19.460;2022-09-23T14:19:20;4.70;;;2.20;;
18738;SDS011;9498;51.862;19.460;2022-09-23T14:21:49;2.27;;;1.70;;
18738;SDS011;9498;51.862;19.460;2022-09-23T14:24:17;2.00;;;1.60;;
18738;SDS011;9498;51.862;19.460;2022-09-23T14:26:46;2.90;;;1.47;;
18738;SDS011;9498;51.862;19.460;2022-09-23T14:29:15;3.10;;;1.73;;
18738;SDS011;9498;51.862;19.460;2022-09-23T14:31:43;2.10;;;1.60;;
18738;SDS011;9498;51.862;19.460;2022-09-23T14:34:41;3.03;;;1.60;;
18738;SDS011;9498;51.862;19.460;2022-09-23T14:37:11;3.73;;;1.80;;
18738;SDS011;9498;51.862;19.460;2022-09-23T14:39:54;2.30;;;1.70;;
18738;SDS011;9498;51.862;19.460;2022-09-23T14:42:21;2.63;;;1.70;;
18738;SDS011;9498;51.862;19.460;2022-09-23T14:44:50;3.00;;;1.83;;
18738;SDS011;9498;51.862;19.460;2022-09-23T14:47:17;3.13;;;1.73;;
18738;SDS011;9498;51.862;19.460;2022-09-23T14:49:47;4.47;;;2.10;;
18738;SDS011;9498;51.862;19.460;2022-09-23T14:52:35;3.27;;;1.93;;
18738;SDS011;9498;51.862;19.460;2022-09-23T14:55:03;2.20;;;1.50;;
18738;SDS011;9498;51.862;19.460;2022-09-23T14:57:30;7.60;;;2.07;;
18738;SDS011;9498;51.862;19.460;2022-09-23T14:59:58;4.47;;;1.90;;
18738;SDS011;9498;51.862;19.460;2022-09-23T15:02:27;3.53;;;1.90;;
18738;SDS011;9498;51.862;19.460;2022-09-23T15:05:10;2.50;;;1.70;;
18738;SDS011;9498;51.862;19.460;2022-09-23T15:07:39;3.13;;;1.40;;
18738;SDS011;9498;51.862;19.460;2022-09-23T15:10:07;2.73;;;1.80;;
18738;SDS011;9498;51.862;19.460;2022-09-23T15:12:38;2.73;;;1.60;;
18738;SDS011;9498;51.862;19.460;2022-09-23T15:15:09;2.10;;;1.40;;
18738;SDS011;9498;51.862;19.460;2022-09-23T15:17:38;2.43;;;1.50;;
18738;SDS011;9498;51.862;19.460;2022-09-23T15:20:06;2.67;;;1.47;;
18738;SDS011;9498;51.862;19.460;2022-09-23T15:22:42;4.40;;;1.50;;